createdAt,value
2023-09-28T00:01:39.744Z,14.06
2023-09-28T00:04:08.251Z,13.88
2023-09-28T00:06:37.501Z,14.00
2023-09-28T00:09:07.138Z,13.92
2023-09-28T00:11:35.523Z,13.95
2023-09-28T00:14:03.200Z,13.84
2023-09-28T00:16:33.092Z,13.87
2023-09-28T00:19:00.543Z,13.84
2023-09-28T00:21:29.466Z,13.84
2023-09-28T00:23:57.281Z,13.76
2023-09-28T00:26:27.951Z,13.67
2023-09-28T00:28:55.708Z,13.68
2023-09-28T00:31:24.098Z,13.62
2023-09-28T00:33:52.045Z,13.61
2023-09-28T00:36:20.609Z,13.56
2023-09-28T00:38:49.531Z,13.59
2023-09-28T00:41:17.367Z,13.63
2023-09-28T00:43:47.713Z,13.56
2023-09-28T00:46:17.036Z,13.59
2023-09-28T00:48:55.636Z,13.56
2023-09-28T00:51:25.213Z,13.63
2023-09-28T00:53:54.160Z,13.44
2023-09-28T00:56:23.652Z,13.60
2023-09-28T00:58:56.154Z,13.57
2023-09-28T01:01:25.998Z,13.49
2023-09-28T01:03:56.091Z,13.52
2023-09-28T01:06:25.832Z,13.63
2023-09-28T01:08:55.168Z,13.60
2023-09-28T01:11:23.586Z,13.47
2023-09-28T01:13:54.504Z,13.38
2023-09-28T01:16:25.025Z,13.47
2023-09-28T01:18:53.546Z,13.43
2023-09-28T01:21:21.223Z,13.38
2023-09-28T01:23:52.482Z,13.34
2023-09-28T01:26:20.816Z,13.37
2023-09-28T01:28:49.517Z,13.31
2023-09-28T01:31:17.711Z,13.31
2023-09-28T01:33:46.543Z,13.25
2023-09-28T01:36:14.151Z,13.29
2023-09-28T01:38:47.438Z,13.24
2023-09-28T01:41:16.796Z,13.20
2023-09-28T01:43:45.680Z,13.13
2023-09-28T01:46:14.046Z,13.05
2023-09-28T01:48:42.726Z,13.09
2023-09-28T01:51:10.507Z,12.98
2023-09-28T01:53:39.220Z,13.04
2023-09-28T01:56:06.953Z,12.94
2023-09-28T01:58:37.126Z,13.02
2023-09-28T02:01:38.076Z,12.95
2023-09-28T02:04:07.293Z,13.05
2023-09-28T02:06:34.888Z,12.96
2023-09-28T02:09:04.280Z,13.09
2023-09-28T02:11:32.012Z,12.99
2023-09-28T02:14:02.378Z,13.04
2023-09-28T02:16:31.609Z,13.04
2023-09-28T02:19:00.509Z,13.02
2023-09-28T02:21:28.486Z,13.02
2023-09-28T02:23:59.968Z,13.00
2023-09-28T02:26:27.977Z,12.92
2023-09-28T02:28:56.546Z,12.72
2023-09-28T02:31:26.166Z,12.75
2023-09-28T02:33:55.274Z,12.85
2023-09-28T02:36:22.948Z,12.75
2023-09-28T02:38:51.540Z,12.83
2023-09-28T02:41:19.560Z,12.95
2023-09-28T02:43:49.198Z,12.94
2023-09-28T02:46:16.701Z,13.01
2023-09-28T02:48:46.589Z,13.04
2023-09-28T02:51:14.012Z,13.05
2023-09-28T02:53:42.473Z,12.98
2023-09-28T02:56:09.919Z,12.88
2023-09-28T02:58:38.807Z,12.80
2023-09-28T03:01:06.717Z,12.75
2023-09-28T03:03:35.761Z,12.67
2023-09-28T03:06:05.743Z,12.73
2023-09-28T03:08:34.484Z,12.68
2023-09-28T03:11:02.263Z,12.54
2023-09-28T03:13:31.128Z,12.66
2023-09-28T03:15:59.663Z,12.57
2023-09-28T03:18:27.444Z,12.52
2023-09-28T03:20:55.979Z,12.56
2023-09-28T03:23:24.869Z,12.60
2023-09-28T03:25:58.129Z,12.48
2023-09-28T03:28:25.824Z,12.47
2023-09-28T03:30:54.690Z,12.45
2023-09-28T03:33:22.550Z,12.48
2023-09-28T03:35:51.135Z,12.38
2023-09-28T03:38:19.814Z,12.55
2023-09-28T03:40:49.913Z,12.30
2023-09-28T03:43:19.004Z,12.34
2023-09-28T03:45:47.573Z,12.34
2023-09-28T03:48:16.048Z,12.30
2023-09-28T03:50:45.133Z,12.52
2023-09-28T03:53:13.967Z,12.48
2023-09-28T03:55:43.622Z,12.26
2023-09-28T03:58:13.930Z,12.37
2023-09-28T04:00:42.528Z,12.29
2023-09-28T04:03:11.711Z,12.22
2023-09-28T04:05:40.920Z,12.18
2023-09-28T04:08:09.356Z,12.10
2023-09-28T04:10:37.792Z,12.05
2023-09-28T04:13:06.634Z,12.16
2023-09-28T04:15:37.202Z,12.12
2023-09-28T04:18:06.278Z,12.24
2023-09-28T04:20:35.106Z,12.18
2023-09-28T04:23:08.213Z,12.34
2023-09-28T04:25:37.759Z,12.29
2023-09-28T04:28:07.358Z,12.17
2023-09-28T04:30:37.448Z,12.13
2023-09-28T04:33:06.765Z,12.07
2023-09-28T04:35:35.757Z,12.22
2023-09-28T04:38:05.462Z,12.19
2023-09-28T04:40:34.341Z,12.22
2023-09-28T04:43:02.839Z,12.16
2023-09-28T04:45:31.275Z,12.12
2023-09-28T04:48:01.675Z,12.22
2023-09-28T04:50:30.383Z,12.20
2023-09-28T04:52:59.395Z,12.28
2023-09-28T04:55:28.168Z,12.30
2023-09-28T04:57:57.269Z,12.37
2023-09-28T05:00:25.860Z,12.40
2023-09-28T05:02:54.532Z,12.46
2023-09-28T05:05:24.527Z,12.31
2023-09-28T05:07:52.964Z,12.25
2023-09-28T05:10:21.825Z,12.09
2023-09-28T05:12:50.701Z,12.26
2023-09-28T05:15:19.372Z,12.19
2023-09-28T05:17:48.552Z,12.18
2023-09-28T05:20:17.772Z,12.14
2023-09-28T05:22:47.695Z,12.22
2023-09-28T05:25:16.926Z,12.30
2023-09-28T05:27:45.737Z,12.26
2023-09-28T05:30:15.288Z,12.38
2023-09-28T05:32:43.607Z,12.46
2023-09-28T05:35:12.104Z,12.48
2023-09-28T05:37:40.620Z,12.49
2023-09-28T05:40:12.922Z,12.53
2023-09-28T05:42:42.415Z,12.55
2023-09-28T05:45:11.999Z,12.60
2023-09-28T05:47:40.185Z,12.76
2023-09-28T05:50:09.644Z,12.85
2023-09-28T05:52:38.090Z,12.89
2023-09-28T05:55:07.033Z,12.98
2023-09-28T05:57:36.757Z,13.07
2023-09-28T06:00:08.599Z,13.16
2023-09-28T06:02:37.896Z,13.26
2023-09-28T06:05:06.957Z,13.36
2023-09-28T06:07:35.504Z,13.43
2023-09-28T06:10:04.606Z,13.51
2023-09-28T06:12:32.941Z,13.62
2023-09-28T06:15:03.146Z,13.72
2023-09-28T06:17:31.918Z,13.89
2023-09-28T06:20:00.249Z,14.06
2023-09-28T06:22:28.452Z,14.21
2023-09-28T06:24:57.277Z,14.40
2023-09-28T06:27:29.737Z,14.63
2023-09-28T06:29:58.539Z,14.98
2023-09-28T06:32:28.242Z,15.32
2023-09-28T06:34:56.656Z,16.42
2023-09-28T06:37:26.422Z,18.65
2023-09-28T06:39:54.581Z,20.78
2023-09-28T06:42:35.887Z,21.75
2023-09-28T06:45:06.163Z,23.90
2023-09-28T06:47:52.078Z,25.42
2023-09-28T06:50:24.743Z,26.32
2023-09-28T06:52:58.712Z,27.21
2023-09-28T06:55:27.211Z,28.05
2023-09-28T06:57:56.027Z,28.03
2023-09-28T07:00:24.516Z,28.06
2023-09-28T07:02:56.456Z,27.97
2023-09-28T07:05:25.046Z,27.89
2023-09-28T07:07:53.344Z,26.26
2023-09-28T07:10:21.794Z,26.47
2023-09-28T07:12:50.542Z,25.79
2023-09-28T07:15:19.415Z,25.43
2023-09-28T07:17:47.867Z,24.60
2023-09-28T07:20:17.588Z,24.31
2023-09-28T07:22:46.043Z,23.86
2023-09-28T07:25:14.333Z,23.20
2023-09-28T07:27:44.170Z,22.79
2023-09-28T07:30:13.310Z,22.23
2023-09-28T07:32:42.035Z,21.98
2023-09-28T07:35:11.586Z,21.40
2023-09-28T07:37:43.446Z,21.10
2023-09-28T07:40:14.174Z,20.72
2023-09-28T07:42:44.585Z,20.62
2023-09-28T07:45:14.769Z,20.67
2023-09-28T07:47:44.189Z,20.60
2023-09-28T07:50:16.317Z,20.54
2023-09-28T07:52:46.446Z,20.45
2023-09-28T07:55:15.453Z,20.61
2023-09-28T07:57:54.522Z,20.62
2023-09-28T08:00:26.043Z,20.69
2023-09-28T08:02:54.598Z,20.68
2023-09-28T08:05:23.497Z,20.59
2023-09-28T08:08:08.109Z,20.31
2023-09-28T08:10:39.072Z,20.48
2023-09-28T08:13:07.663Z,20.36
2023-09-28T08:15:37.484Z,20.47
2023-09-28T08:18:06.351Z,20.56
2023-09-28T08:20:35.666Z,20.60
2023-09-28T08:23:07.034Z,20.60
2023-09-28T08:25:36.155Z,20.65
2023-09-28T08:28:04.543Z,20.51
2023-09-28T08:30:32.788Z,20.32
2023-09-28T08:33:02.680Z,20.23
2023-09-28T08:35:33.302Z,20.34
2023-09-28T08:38:01.953Z,20.43
2023-09-28T08:40:31.959Z,20.58
2023-09-28T08:43:05.776Z,20.60
2023-09-28T08:45:34.900Z,20.76
2023-09-28T08:48:09.628Z,20.73
2023-09-28T08:50:41.340Z,20.98
2023-09-28T08:53:12.052Z,21.04
2023-09-28T08:55:42.200Z,20.76
2023-09-28T08:58:12.745Z,20.88
2023-09-28T09:00:42.986Z,20.89
2023-09-28T09:03:12.236Z,21.02
2023-09-28T09:05:42.836Z,21.22
2023-09-28T09:08:14.149Z,21.18
2023-09-28T09:10:44.580Z,21.22
2023-09-28T09:13:19.406Z,21.25
2023-09-28T09:15:48.052Z,21.32
2023-09-28T09:18:20.523Z,21.22
2023-09-28T09:20:49.571Z,21.42
2023-09-28T09:23:19.284Z,21.59
2023-09-28T09:25:49.764Z,21.61
2023-09-28T09:28:29.792Z,21.81
2023-09-28T09:30:58.800Z,21.39
2023-09-28T09:33:27.586Z,21.52
2023-09-28T09:35:56.154Z,21.65
2023-09-28T09:38:26.030Z,21.65
2023-09-28T09:41:11.395Z,21.80
2023-09-28T09:43:43.390Z,21.77
2023-09-28T09:46:12.405Z,21.92
2023-09-28T09:48:42.436Z,22.03
2023-09-28T09:51:12.487Z,22.12
2023-09-28T09:53:42.133Z,22.18
2023-09-28T09:56:15.233Z,22.21
2023-09-28T09:58:49.312Z,22.22
2023-09-28T10:01:19.605Z,22.37
2023-09-28T10:03:51.845Z,22.45
2023-09-28T10:06:21.435Z,22.48
2023-09-28T10:08:50.847Z,22.23
2023-09-28T10:11:20.959Z,22.04
2023-09-28T10:13:50.951Z,22.04
2023-09-28T10:16:21.089Z,22.02
2023-09-28T10:18:50.691Z,22.11
2023-09-28T10:21:19.323Z,22.02
2023-09-28T10:23:48.390Z,22.13
2023-09-28T10:26:19.663Z,22.00
2023-09-28T10:29:06.276Z,21.87
2023-09-28T10:31:49.879Z,21.96
2023-09-28T10:34:27.904Z,21.73
2023-09-28T10:37:20.039Z,21.82
2023-09-28T10:39:57.507Z,21.66
2023-09-28T10:42:25.663Z,21.68
2023-09-28T10:44:58.323Z,21.75
2023-09-28T10:47:27.219Z,21.86
2023-09-28T10:50:02.222Z,21.85
2023-09-28T10:52:31.021Z,21.84
2023-09-28T10:54:59.149Z,21.85
2023-09-28T10:57:32.462Z,21.73
2023-09-28T11:00:03.705Z,21.70
2023-09-28T11:02:37.934Z,21.81
2023-09-28T11:05:09.396Z,21.78
2023-09-28T11:07:38.277Z,21.73
2023-09-28T11:10:10.274Z,21.87
2023-09-28T11:12:38.814Z,21.89
2023-09-28T11:15:11.115Z,21.84
2023-09-28T11:17:40.063Z,21.88
2023-09-28T11:20:12.724Z,22.09
2023-09-28T11:22:41.638Z,22.15
2023-09-28T11:25:13.757Z,22.15
2023-09-28T11:27:44.743Z,22.17
2023-09-28T11:30:20.859Z,22.35
2023-09-28T11:32:51.942Z,22.47
2023-09-28T11:35:25.740Z,22.66
2023-09-28T11:37:54.620Z,22.96
2023-09-28T11:40:23.259Z,23.12
2023-09-28T11:42:54.952Z,23.20
2023-09-28T11:45:29.976Z,23.25
2023-09-28T11:47:58.873Z,23.17
2023-09-28T11:50:30.014Z,23.01
2023-09-28T11:52:58.642Z,22.98
2023-09-28T11:55:28.252Z,22.95
2023-09-28T11:57:58.544Z,22.93
2023-09-28T12:00:27.598Z,22.96
2023-09-28T12:02:57.671Z,23.04
2023-09-28T12:05:26.173Z,23.04
2023-09-28T12:07:54.708Z,23.05
2023-09-28T12:10:23.024Z,23.10
2023-09-28T12:12:51.530Z,23.09
2023-09-28T12:15:20.271Z,23.20
2023-09-28T12:17:48.462Z,23.17
2023-09-28T12:20:18.623Z,23.16
2023-09-28T12:22:46.819Z,23.17
2023-09-28T12:25:15.556Z,23.18
2023-09-28T12:27:46.149Z,23.20
2023-09-28T12:30:20.321Z,23.27
2023-09-28T12:32:48.720Z,23.31
2023-09-28T12:35:21.032Z,23.25
2023-09-28T12:37:51.250Z,23.22
2023-09-28T12:40:19.580Z,23.14
2023-09-28T12:42:48.125Z,23.11
2023-09-28T12:45:17.478Z,23.19
2023-09-28T12:47:46.759Z,23.13
2023-09-28T12:50:15.928Z,23.09
2023-09-28T12:52:45.898Z,23.13
2023-09-28T12:55:15.953Z,23.12
2023-09-28T12:57:48.772Z,23.13
2023-09-28T13:00:25.569Z,23.16
